Time;durP1;ratioP1;P1;durP2;ratioP2;P2;SDS_P1;SDS_P2;PMS_P1;PMS_P2;Temp;Humidity;BMP_temperature;BMP_pressure;BME280_temperature;BME280_humidity;BME280_pressure;Samples;Min_cycle;Max_cycle;Signal;HPM_P1;HPM_P2
2024/01/03 00:00:09;;;;;;;5.18;4.72;;;10.20;99.90;;;;;;5122778;27;20230;-78
2024/01/03 00:02:41;;;;;;;4.57;4.15;;;10.30;99.90;;;;;;5115268;28;20222;-78
2024/01/03 00:05:10;;;;;;;2.05;1.95;;;10.30;99.90;;;;;;5113577;28;20261;-85
2024/01/03 00:07:47;;;;;;;2.33;2.13;;;10.30;99.90;;;;;;5115622;28;20219;-85
2024/01/03 00:10:30;;;;;;;2.40;2.20;;;10.40;99.90;;;;;;5115124;28;20651;-85
2024/01/03 00:12:57;;;;;;;2.20;2.00;;;10.40;99.90;;;;;;5120985;27;20225;-84
2024/01/03 00:16:13;;;;;;;2.53;2.33;;;10.40;99.90;;;;;;5115558;27;20226;-85
2024/01/03 00:18:45;;;;;;;2.30;2.08;;;10.40;99.90;;;;;;5101418;28;20222;-84
2024/01/03 00:21:18;;;;;;;2.30;2.10;;;10.40;99.90;;;;;;5115697;28;20668;-85
2024/01/03 00:23:52;;;;;;;2.85;2.58;;;10.50;99.90;;;;;;5113804;28;20242;-78
2024/01/03 00:26:19;;;;;;;2.17;2.05;;;10.40;99.90;;;;;;5114943;27;20219;-78
2024/01/03 00:28:47;;;;;;;2.15;2.00;;;10.40;99.90;;;;;;5114598;28;20242;-79
2024/01/03 00:31:29;;;;;;;2.50;2.30;;;10.50;99.90;;;;;;5114946;27;20219;-78
2024/01/03 00:33:57;;;;;;;2.17;2.03;;;10.50;99.90;;;;;;5114685;27;20222;-85
2024/01/03 00:36:26;;;;;;;2.30;2.10;;;10.50;99.90;;;;;;5115013;28;20284;-79
2024/01/03 00:38:53;;;;;;;2.03;1.92;;;10.50;99.90;;;;;;5114708;28;20222;-79
2024/01/03 00:41:20;;;;;;;3.13;2.25;;;10.50;99.90;;;;;;5114753;28;20235;-79
2024/01/03 00:43:47;;;;;;;1.50;1.40;;;10.50;99.90;;;;;;5114573;28;20226;-78
2024/01/03 00:46:14;;;;;;;2.15;2.03;;;10.50;99.90;;;;;;5114753;28;20793;-79
2024/01/03 00:48:42;;;;;;;1.95;1.85;;;10.60;99.90;;;;;;5114179;28;20223;-79
2024/01/03 00:51:09;;;;;;;2.30;1.95;;;10.60;99.90;;;;;;5115429;28;20229;-85
2024/01/03 00:53:38;;;;;;;2.10;2.00;;;10.60;99.90;;;;;;5114431;28;20726;-79
2024/01/03 00:56:06;;;;;;;2.75;1.67;;;10.60;99.90;;;;;;5114211;28;20218;-78
2024/01/03 00:58:33;;;;;;;1.63;1.52;;;10.60;99.90;;;;;;5114605;28;20568;-78
2024/01/03 01:01:00;;;;;;;1.90;1.67;;;10.60;99.90;;;;;;5114059;27;20287;-79
2024/01/03 01:03:27;;;;;;;3.33;1.55;;;10.60;99.90;;;;;;5114294;28;20231;-79
2024/01/03 01:05:54;;;;;;;1.95;1.60;;;10.60;99.90;;;;;;5113995;28;20233;-79
2024/01/03 01:08:22;;;;;;;1.70;1.60;;;10.60;99.90;;;;;;5114673;28;20348;-85
2024/01/03 01:10:50;;;;;;;1.70;1.60;;;10.60;99.90;;;;;;5113758;28;20300;-79
2024/01/03 01:13:17;;;;;;;1.90;1.80;;;10.60;99.90;;;;;;5113812;28;20306;-85
2024/01/03 01:15:45;;;;;;;2.08;1.75;;;10.60;99.90;;;;;;5113559;28;20233;-85
2024/01/03 01:18:12;;;;;;;1.40;1.30;;;10.60;99.90;;;;;;5114380;28;20226;-85
2024/01/03 01:20:41;;;;;;;1.45;1.35;;;10.60;99.90;;;;;;5115053;28;20238;-85
2024/01/03 01:23:07;;;;;;;1.30;1.20;;;10.60;99.90;;;;;;5114286;28;20242;-85
2024/01/03 01:25:34;;;;;;;1.20;1.10;;;10.60;99.90;;;;;;5114176;28;20603;-85
2024/01/03 01:28:03;;;;;;;1.33;1.23;;;10.60;99.90;;;;;;5113828;28;20229;-85
2024/01/03 01:30:30;;;;;;;1.40;1.30;;;10.60;99.90;;;;;;5114332;28;20250;-86
2024/01/03 01:32:57;;;;;;;1.60;1.50;;;10.60;99.90;;;;;;5113754;28;20227;-78
2024/01/03 01:35:24;;;;;;;1.23;1.13;;;10.60;99.90;;;;;;5114313;28;20230;-78
2024/01/03 01:37:51;;;;;;;1.60;1.50;;;10.50;99.90;;;;;;5113982;28;20603;-79
2024/01/03 01:40:18;;;;;;;4.13;1.48;;;10.50;99.90;;;;;;5113953;28;20226;-78
2024/01/03 01:42:48;;;;;;;1.42;1.20;;;10.50;99.90;;;;;;5113770;28;20230;-78
2024/01/03 01:45:19;;;;;;;1.50;1.40;;;10.40;99.90;;;;;;5113888;28;20211;-86
2024/01/03 01:47:46;;;;;;;0.80;0.80;;;10.50;99.90;;;;;;5114154;28;20226;-86
2024/01/03 01:50:15;;;;;;;5.03;3.03;;;10.50;99.90;;;;;;5113564;28;20226;-79
2024/01/03 01:52:43;;;;;;;1.70;1.30;;;10.50;99.90;;;;;;5113793;28;20233;-78
2024/01/03 01:55:11;;;;;;;2.65;2.15;;;10.50;99.90;;;;;;5113307;28;20226;-78
2024/01/03 01:57:39;;;;;;;2.20;1.92;;;10.50;99.90;;;;;;5114190;28;20304;-86
2024/01/03 02:00:08;;;;;;;1.88;1.45;;;10.50;99.90;;;;;;5113643;28;20222;-85
2024/01/03 02:02:41;;;;;;;0.90;0.80;;;10.60;99.90;;;;;;5113844;28;20231;-78
2024/01/03 02:05:09;;;;;;;0.93;0.82;;;10.60;99.90;;;;;;5113181;28;20230;-79
2024/01/03 02:07:42;;;;;;;0.98;0.90;;;10.60;99.90;;;;;;5113883;28;20233;-78
2024/01/03 02:10:10;;;;;;;1.33;0.77;;;10.50;99.90;;;;;;5112411;28;20238;-79
2024/01/03 02:12:37;;;;;;;0.88;0.80;;;10.60;99.90;;;;;;5113755;28;20234;-78
2024/01/03 02:15:05;;;;;;;0.88;0.88;;;10.50;99.90;;;;;;5113456;28;20557;-85
2024/01/03 02:17:33;;;;;;;0.80;0.80;;;10.50;99.90;;;;;;5113922;28;20222;-79
2024/01/03 02:20:36;;;;;;;1.55;0.98;;;10.50;99.90;;;;;;5113212;28;20737;-85
2024/01/03 02:23:06;;;;;;;1.20;1.10;;;10.50;99.90;;;;;;5036301;28;20229;-85
2024/01/03 02:25:33;;;;;;;0.70;0.70;;;10.50;99.90;;;;;;5033627;28;20264;-78
2024/01/03 02:28:00;;;;;;;0.90;0.70;;;10.50;99.90;;;;;;5070684;28;20223;-79
2024/01/03 02:30:28;;;;;;;1.33;1.10;;;10.50;99.90;;;;;;5138004;27;20222;-78
2024/01/03 02:32:55;;;;;;;1.15;0.93;;;10.50;99.90;;;;;;5138274;27;20233;-85
2024/01/03 02:35:22;;;;;;;1.30;1.00;;;10.50;99.90;;;;;;5137860;27;20693;-79
2024/01/03 02:37:49;;;;;;;1.20;1.10;;;10.50;99.90;;;;;;5138383;27;20229;-86
2024/01/03 02:40:17;;;;;;;1.00;0.90;;;10.60;99.90;;;;;;5137654;27;20286;-79
2024/01/03 02:42:47;;;;;;;1.02;0.90;;;10.50;99.90;;;;;;5137806;27;20592;-78
2024/01/03 02:45:14;;;;;;;0.60;0.60;;;10.50;99.90;;;;;;5137151;27;20253;-79
2024/01/03 02:47:41;;;;;;;0.70;0.70;;;10.60;99.90;;;;;;5138316;27;20225;-86
2024/01/03 02:50:09;;;;;;;2.35;0.73;;;10.50;99.90;;;;;;5137430;27;20287;-79
2024/01/03 02:52:36;;;;;;;0.70;0.70;;;10.50;99.90;;;;;;5137843;27;20236;-78
2024/01/03 02:55:03;;;;;;;2.25;0.73;;;10.50;99.90;;;;;;5136495;27;20222;-79
2024/01/03 02:57:31;;;;;;;2.17;1.75;;;10.60;99.90;;;;;;5137578;27;20548;-78
2024/01/03 02:59:58;;;;;;;0.88;0.70;;;10.50;99.90;;;;;;5137012;27;20222;-78
2024/01/03 03:02:25;;;;;;;0.90;0.82;;;10.60;99.90;;;;;;5115914;27;20223;-79
2024/01/03 03:04:54;;;;;;;1.20;1.10;;;10.60;99.90;;;;;;5116946;27;20241;-79
2024/01/03 03:07:21;;;;;;;1.10;0.85;;;10.60;99.90;;;;;;5122210;27;20336;-79
2024/01/03 03:09:48;;;;;;;0.80;0.70;;;10.60;99.90;;;;;;5117057;28;20590;-78
2024/01/03 03:12:15;;;;;;;1.80;1.10;;;10.60;99.90;;;;;;5116296;28;20241;-86
2024/01/03 03:14:43;;;;;;;0.90;0.90;;;10.60;99.90;;;;;;5117057;28;20219;-85
2024/01/03 03:17:10;;;;;;;0.80;0.80;;;10.60;99.90;;;;;;5116768;27;20214;-85
2024/01/03 03:19:37;;;;;;;0.68;0.60;;;10.70;99.90;;;;;;5116901;27;20242;-86
2024/01/03 03:22:05;;;;;;;0.80;0.70;;;10.70;99.90;;;;;;5117189;28;20218;-86
2024/01/03 03:24:32;;;;;;;1.23;1.00;;;10.70;99.90;;;;;;5116892;27;20231;-78
2024/01/03 03:26:58;;;;;;;1.60;0.90;;;10.80;99.90;;;;;;5116445;28;20223;-78
2024/01/03 03:29:25;;;;;;;1.05;0.85;;;10.80;99.90;;;;;;5116274;27;20249;-79
2024/01/03 03:31:57;;;;;;;1.60;0.60;;;10.80;99.90;;;;;;5116502;27;20256;-78
2024/01/03 03:34:24;;;;;;;0.73;0.70;;;10.80;99.90;;;;;;5116074;28;20542;-78
2024/01/03 03:36:51;;;;;;;1.00;0.80;;;10.80;99.90;;;;;;5117677;27;20215;-86
2024/01/03 03:39:18;;;;;;;2.10;0.90;;;10.80;99.90;;;;;;5117369;27;20218;-86
2024/01/03 03:41:45;;;;;;;1.50;1.35;;;10.80;99.90;;;;;;5116246;28;20227;-78
2024/01/03 03:44:12;;;;;;;0.80;0.68;;;10.80;99.90;;;;;;5115866;28;20230;-85
2024/01/03 03:46:40;;;;;;;1.25;0.70;;;10.80;99.90;;;;;;5116215;28;20228;-78
2024/01/03 03:49:08;;;;;;;2.55;1.00;;;10.80;99.90;;;;;;5116337;28;20310;-78
2024/01/03 03:51:35;;;;;;;1.45;1.00;;;10.80;99.90;;;;;;5116309;28;20222;-78
2024/01/03 03:54:02;;;;;;;3.15;1.00;;;10.80;99.90;;;;;;5115657;28;20222;-78
2024/01/03 03:56:30;;;;;;;1.08;0.80;;;10.80;99.90;;;;;;5115835;28;20223;-86
2024/01/03 03:58:57;;;;;;;2.28;0.80;;;10.90;99.90;;;;;;5116647;28;20223;-79
2024/01/03 04:01:24;;;;;;;0.80;0.70;;;10.90;99.90;;;;;;5115857;28;20699;-86
2024/01/03 04:03:51;;;;;;;1.90;0.93;;;10.80;99.90;;;;;;5117591;28;20268;-86
2024/01/03 04:06:19;;;;;;;0.85;0.70;;;10.80;99.90;;;;;;5116747;28;20241;-85
2024/01/03 04:08:49;;;;;;;1.58;0.82;;;10.80;99.90;;;;;;5119003;27;20225;-85
2024/01/03 04:11:19;;;;;;;1.77;1.45;;;10.70;99.90;;;;;;5120583;28;20596;-79
2024/01/03 04:13:47;;;;;;;3.30;0.85;;;10.80;99.90;;;;;;5116981;28;20253;-86
2024/01/03 04:16:13;;;;;;;1.23;0.80;;;10.80;99.90;;;;;;5115626;28;20313;-79
2024/01/03 04:18:41;;;;;;;0.80;0.70;;;10.70;99.90;;;;;;5126440;28;20219;-85
2024/01/03 04:21:08;;;;;;;1.55;0.80;;;10.70;99.90;;;;;;5124532;27;20218;-79
2024/01/03 04:23:36;;;;;;;1.23;0.73;;;10.80;99.90;;;;;;5120812;28;20239;-86
2024/01/03 04:26:03;;;;;;;1.73;0.73;;;10.80;99.90;;;;;;5123013;28;20227;-79
2024/01/03 04:28:30;;;;;;;1.95;0.95;;;10.70;99.90;;;;;;5118470;27;20227;-79
2024/01/03 04:30:57;;;;;;;0.80;0.70;;;10.70;99.90;;;;;;5126137;27;20222;-86
2024/01/03 04:33:24;;;;;;;0.70;0.60;;;10.70;99.90;;;;;;5120231;28;20233;-79
2024/01/03 04:35:51;;;;;;;1.27;1.17;;;10.70;99.90;;;;;;5117845;27;20644;-78
2024/01/03 04:38:18;;;;;;;1.33;0.70;;;10.70;99.90;;;;;;5115598;27;20215;-79
2024/01/03 04:40:46;;;;;;;0.88;0.70;;;10.70;99.90;;;;;;5115023;28;20222;-78
2024/01/03 04:43:13;;;;;;;0.70;0.68;;;10.70;99.90;;;;;;5115098;28;20310;-86
2024/01/03 04:45:40;;;;;;;0.60;0.60;;;10.70;99.90;;;;;;5115691;27;20218;-85
2024/01/03 04:48:16;;;;;;;1.42;0.70;;;10.70;99.90;;;;;;5116151;28;20222;-85
2024/01/03 04:50:43;;;;;;;1.02;0.75;;;10.70;99.90;;;;;;5109747;28;20239;-78
2024/01/03 04:53:10;;;;;;;2.28;1.05;;;10.70;99.90;;;;;;5115913;28;20225;-78
2024/01/03 04:55:37;;;;;;;2.88;1.35;;;10.70;99.90;;;;;;5114663;28;20698;-78
2024/01/03 04:58:06;;;;;;;2.33;0.98;;;10.80;99.90;;;;;;5114914;28;20230;-85
2024/01/03 05:00:34;;;;;;;1.85;0.95;;;10.80;99.90;;;;;;5114727;28;21015;-79
2024/01/03 05:03:01;;;;;;;2.22;1.00;;;10.80;99.90;;;;;;5115494;27;20234;-85
2024/01/03 05:05:28;;;;;;;1.45;0.70;;;10.80;99.90;;;;;;5114221;28;20227;-86
2024/01/03 05:07:56;;;;;;;0.90;0.70;;;10.80;99.90;;;;;;5114691;28;20295;-86
2024/01/03 05:10:25;;;;;;;2.67;1.20;;;10.80;99.90;;;;;;5113988;28;20228;-80
2024/01/03 05:12:52;;;;;;;1.63;0.90;;;10.80;99.90;;;;;;5114701;28;20237;-85
2024/01/03 05:15:21;;;;;;;1.50;0.73;;;10.90;99.90;;;;;;5114807;27;20302;-85
2024/01/03 05:17:48;;;;;;;1.23;0.80;;;10.90;99.90;;;;;;5115192;27;20549;-86
2024/01/03 05:20:15;;;;;;;2.58;1.08;;;10.90;99.90;;;;;;5115122;28;20276;-85
2024/01/03 05:22:42;;;;;;;1.35;0.90;;;10.90;99.90;;;;;;5116363;28;20313;-86
2024/01/03 05:25:09;;;;;;;2.15;1.00;;;10.90;99.90;;;;;;5114344;28;20283;-79
2024/01/03 05:27:36;;;;;;;1.27;0.90;;;11.00;99.90;;;;;;5113830;28;20238;-78
2024/01/03 05:30:04;;;;;;;1.13;0.90;;;10.90;99.90;;;;;;5114211;28;20230;-78
2024/01/03 05:32:32;;;;;;;2.35;0.77;;;10.90;99.90;;;;;;5113538;28;20687;-79
2024/01/03 05:34:59;;;;;;;2.47;1.13;;;10.90;99.90;;;;;;5113818;28;20660;-85
2024/01/03 05:37:26;;;;;;;3.75;1.10;;;10.90;99.90;;;;;;5115192;28;20619;-84
2024/01/03 05:39:53;;;;;;;2.78;0.90;;;10.90;99.90;;;;;;5088135;28;20223;-78
2024/01/03 05:42:20;;;;;;;3.08;1.10;;;10.80;99.90;;;;;;5093551;28;20227;-79
2024/01/03 05:44:47;;;;;;;1.17;0.95;;;10.80;99.90;;;;;;5107997;28;20303;-78
2024/01/03 05:47:20;;;;;;;1.17;0.98;;;10.80;99.90;;;;;;5113849;28;20215;-85
2024/01/03 05:49:48;;;;;;;2.50;1.10;;;10.80;99.90;;;;;;5113957;28;20279;-79
2024/01/03 05:52:15;;;;;;;1.35;0.80;;;10.80;99.90;;;;;;5114032;28;20293;-85
2024/01/03 05:54:42;;;;;;;1.10;0.80;;;10.80;99.90;;;;;;5116325;28;20222;-79
2024/01/03 05:57:09;;;;;;;2.00;1.20;;;10.80;99.90;;;;;;5115799;28;20229;-85
2024/01/03 05:59:36;;;;;;;1.33;0.75;;;10.80;99.90;;;;;;5114093;28;20222;-78
2024/01/03 06:02:03;;;;;;;3.17;0.80;;;10.80;99.90;;;;;;5113594;28;20287;-78
2024/01/03 06:04:30;;;;;;;1.70;0.82;;;10.80;99.90;;;;;;5116258;28;20222;-85
2024/01/03 06:06:58;;;;;;;2.05;0.80;;;10.80;99.90;;;;;;5119549;28;20222;-85
2024/01/03 06:09:29;;;;;;;1.92;1.00;;;10.80;99.90;;;;;;5118356;28;20244;-85
2024/01/03 06:11:56;;;;;;;1.85;1.10;;;10.80;99.90;;;;;;5118009;28;20222;-78
2024/01/03 06:14:23;;;;;;;1.10;1.10;;;10.80;99.90;;;;;;5117531;27;20230;-78
2024/01/03 06:16:50;;;;;;;2.47;1.00;;;10.90;99.90;;;;;;5117766;27;20225;-78
2024/01/03 06:19:17;;;;;;;1.85;1.33;;;10.80;99.90;;;;;;5117058;28;20233;-79
2024/01/03 06:21:44;;;;;;;1.08;0.80;;;10.80;99.90;;;;;;5118054;27;20224;-85
2024/01/03 06:24:12;;;;;;;3.67;1.30;;;10.80;99.90;;;;;;5117585;28;20227;-84
2024/01/03 06:26:41;;;;;;;1.05;0.90;;;10.90;99.90;;;;;;5118080;28;20218;-85
2024/01/03 06:29:08;;;;;;;3.53;0.90;;;10.90;99.90;;;;;;5117458;28;20570;-79
2024/01/03 06:31:35;;;;;;;6.47;1.00;;;10.80;99.90;;;;;;5117773;27;20226;-85
2024/01/03 06:34:02;;;;;;;6.22;1.30;;;10.80;99.90;;;;;;5118091;28;20230;-86
2024/01/03 06:36:29;;;;;;;1.95;1.23;;;10.80;99.90;;;;;;5117634;28;20227;-85
2024/01/03 06:38:56;;;;;;;1.40;0.80;;;10.90;99.90;;;;;;5117972;28;20233;-85
2024/01/03 06:41:25;;;;;;;1.25;1.15;;;10.90;99.90;;;;;;5117231;28;20227;-85
2024/01/03 06:43:52;;;;;;;2.00;1.10;;;10.90;99.90;;;;;;5117261;28;20222;-78
2024/01/03 06:46:18;;;;;;;3.53;1.40;;;10.90;99.90;;;;;;5116899;28;20222;-85
2024/01/03 06:48:45;;;;;;;3.65;1.10;;;10.90;99.90;;;;;;5118149;27;20585;-85
2024/01/03 06:51:12;;;;;;;1.45;1.05;;;10.90;99.90;;;;;;5117935;28;20668;-84
2024/01/03 06:53:39;;;;;;;4.68;1.35;;;10.90;99.90;;;;;;5119292;28;20256;-86
2024/01/03 06:56:07;;;;;;;2.45;1.00;;;10.90;99.90;;;;;;5117834;27;20726;-79
2024/01/03 06:58:35;;;;;;;6.57;2.70;;;10.90;99.90;;;;;;5116665;27;20302;-78
2024/01/03 07:01:02;;;;;;;1.70;0.90;;;10.90;99.90;;;;;;5117535;28;20662;-86
2024/01/03 07:03:29;;;;;;;0.80;0.80;;;11.00;99.90;;;;;;5116970;28;20233;-86
2024/01/03 07:05:56;;;;;;;4.38;1.20;;;11.00;99.90;;;;;;5118479;28;20291;-79
2024/01/03 07:08:23;;;;;;;3.47;1.23;;;11.00;99.90;;;;;;5116033;28;20222;-79
2024/01/03 07:10:51;;;;;;;1.92;0.77;;;11.00;99.90;;;;;;5116863;27;20230;-79
2024/01/03 07:13:18;;;;;;;5.63;1.10;;;10.90;99.90;;;;;;5116249;27;20676;-78
2024/01/03 07:15:47;;;;;;;2.50;1.05;;;10.90;99.90;;;;;;5116552;27;20581;-77
2024/01/03 07:18:14;;;;;;;3.22;1.42;;;11.00;99.90;;;;;;5117740;27;20219;-85
2024/01/03 07:20:40;;;;;;;2.45;1.15;;;11.00;99.90;;;;;;5119761;28;20233;-84
2024/01/03 07:23:14;;;;;;;3.28;1.00;;;11.00;99.90;;;;;;5190335;22;20994;-78
2024/01/03 07:25:41;;;;;;;2.50;1.23;;;11.00;99.90;;;;;;5118278;28;20234;-79
2024/01/03 07:28:08;;;;;;;0.90;0.90;;;11.00;99.90;;;;;;5122019;28;20223;-85
2024/01/03 07:30:36;;;;;;;3.13;1.30;;;11.00;99.90;;;;;;5130209;28;20219;-85
2024/01/03 07:33:05;;;;;;;2.88;1.05;;;11.00;99.90;;;;;;5143168;27;20229;-86
2024/01/03 07:35:32;;;;;;;3.00;0.90;;;11.00;99.90;;;;;;5150293;27;20209;-86
2024/01/03 07:37:59;;;;;;;4.80;1.42;;;10.90;99.90;;;;;;5150180;27;20234;-86
2024/01/03 07:40:26;;;;;;;1.55;1.10;;;10.90;99.90;;;;;;5146556;27;20222;-77
2024/01/03 07:42:53;;;;;;;2.60;1.40;;;10.90;99.90;;;;;;5137869;27;20226;-86
2024/01/03 07:45:20;;;;;;;2.80;1.00;;;10.80;99.90;;;;;;5137164;27;20549;-85
2024/01/03 07:47:47;;;;;;;3.28;1.17;;;10.80;99.90;;;;;;5141237;27;20221;-85
2024/01/03 07:50:15;;;;;;;1.10;0.90;;;10.80;99.90;;;;;;5143274;27;20236;-79
2024/01/03 07:52:43;;;;;;;5.15;1.30;;;10.80;99.90;;;;;;5137858;27;20686;-78
2024/01/03 07:55:11;;;;;;;10.18;0.95;;;10.80;99.90;;;;;;5136490;27;20222;-78
2024/01/03 07:57:38;;;;;;;1.85;1.05;;;10.80;99.90;;;;;;5136289;27;20222;-77
2024/01/03 08:00:06;;;;;;;2.85;0.93;;;10.90;99.90;;;;;;5137213;27;20214;-78
2024/01/03 08:02:33;;;;;;;1.33;1.17;;;10.80;99.90;;;;;;5137262;27;20253;-78
2024/01/03 08:05:00;;;;;;;3.80;1.15;;;10.90;99.90;;;;;;5137663;27;20623;-79
2024/01/03 08:07:28;;;;;;;2.15;1.42;;;10.80;99.90;;;;;;5137700;27;20226;-79
2024/01/03 08:09:55;;;;;;;2.85;0.90;;;10.90;99.90;;;;;;5138585;27;20213;-86
2024/01/03 08:12:22;;;;;;;3.75;1.38;;;10.90;99.90;;;;;;5136347;27;20229;-80
2024/01/03 08:14:49;;;;;;;1.30;1.00;;;11.00;99.90;;;;;;5136982;27;20230;-86
2024/01/03 08:17:23;;;;;;;2.53;0.90;;;11.00;99.90;;;;;;5141913;27;20222;-85
2024/01/03 08:19:50;;;;;;;8.40;1.80;;;11.00;99.90;;;;;;5139618;27;20221;-77
2024/01/03 08:22:18;;;;;;;1.92;1.10;;;11.00;99.90;;;;;;5136756;27;21061;-77
2024/01/03 08:24:47;;;;;;;1.35;0.90;;;11.00;99.90;;;;;;5136937;27;20222;-77
2024/01/03 08:27:14;;;;;;;1.33;1.00;;;11.10;99.90;;;;;;5136508;27;20229;-78
2024/01/03 08:29:40;;;;;;;2.15;1.20;;;11.10;99.90;;;;;;5138290;27;20230;-78
2024/01/03 08:32:08;;;;;;;1.92;1.00;;;11.10;99.90;;;;;;5136598;27;20267;-77
2024/01/03 08:34:35;;;;;;;2.20;1.05;;;11.10;99.90;;;;;;5135507;27;20226;-78
2024/01/03 08:37:02;;;;;;;2.67;1.45;;;11.10;99.90;;;;;;5136061;27;20218;-78
2024/01/03 08:39:29;;;;;;;3.85;1.20;;;11.10;99.90;;;;;;5137188;27;20226;-83
2024/01/03 08:41:58;;;;;;;3.13;1.40;;;11.10;99.90;;;;;;5138569;27;20225;-83
2024/01/03 08:44:26;;;;;;;2.45;1.15;;;11.20;99.90;;;;;;5138954;27;20218;-85
2024/01/03 08:46:53;;;;;;;4.93;0.90;;;11.20;99.90;;;;;;5136516;27;20276;-84
2024/01/03 08:49:21;;;;;;;2.90;1.20;;;11.20;99.90;;;;;;5138973;27;20675;-85
2024/01/03 08:51:48;;;;;;;2.85;1.08;;;11.20;99.90;;;;;;5129157;27;20228;-85
2024/01/03 08:54:16;;;;;;;1.23;1.02;;;11.20;99.90;;;;;;5138464;27;20221;-84
2024/01/03 08:56:43;;;;;;;1.98;1.00;;;11.20;99.90;;;;;;5139029;27;20244;-84
2024/01/03 08:59:11;;;;;;;2.50;0.90;;;11.30;99.90;;;;;;5139143;27;20556;-83
2024/01/03 09:01:41;;;;;;;2.17;0.90;;;11.30;99.90;;;;;;5140457;27;20301;-83
2024/01/03 09:04:08;;;;;;;1.60;1.02;;;11.30;99.90;;;;;;5136785;27;20225;-78
2024/01/03 09:06:35;;;;;;;2.28;1.10;;;11.30;99.90;;;;;;5134636;27;20233;-78
2024/01/03 09:09:03;;;;;;;2.08;1.25;;;11.40;99.90;;;;;;5135329;27;20221;-79
2024/01/03 09:11:33;;;;;;;1.30;0.93;;;11.40;99.90;;;;;;5135184;27;20226;-79
2024/01/03 09:14:01;;;;;;;1.67;1.00;;;11.40;99.90;;;;;;5134779;27;20230;-84
2024/01/03 09:16:30;;;;;;;3.97;1.05;;;11.40;99.90;;;;;;5138892;27;20281;-84
2024/01/03 09:18:57;;;;;;;1.80;0.80;;;11.40;99.90;;;;;;5137979;27;20218;-84
2024/01/03 09:21:26;;;;;;;2.88;1.00;;;11.50;99.90;;;;;;5139570;27;20218;-77
2024/01/03 09:23:53;;;;;;;3.17;1.38;;;11.50;99.90;;;;;;5136155;27;20233;-79
2024/01/03 09:26:21;;;;;;;3.63;1.02;;;11.40;99.90;;;;;;5137886;27;20230;-86
2024/01/03 09:28:48;;;;;;;2.15;1.13;;;11.40;99.90;;;;;;5136264;27;20274;-86
2024/01/03 09:31:15;;;;;;;2.03;1.05;;;11.40;99.90;;;;;;5139686;27;20213;-86
2024/01/03 09:33:43;;;;;;;1.33;0.93;;;11.50;99.90;;;;;;5136433;27;20365;-85
2024/01/03 09:36:17;;;;;;;3.00;1.10;;;11.50;99.90;;;;;;5135993;27;20218;-79
2024/01/03 09:38:44;;;;;;;2.33;1.25;;;11.50;99.90;;;;;;5135571;27;20246;-79
2024/01/03 09:41:13;;;;;;;4.35;2.08;;;11.60;99.90;;;;;;5134724;27;20225;-77
2024/01/03 09:43:42;;;;;;;2.88;1.20;;;11.60;99.90;;;;;;5134705;27;20237;-77
2024/01/03 09:46:10;;;;;;;2.30;1.70;;;11.70;99.90;;;;;;5134797;27;20313;-79
2024/01/03 09:48:40;;;;;;;6.05;2.55;;;11.70;99.90;;;;;;5135262;27;20221;-84
2024/01/03 09:51:08;;;;;;;3.42;2.78;;;11.70;99.90;;;;;;5134698;27;20222;-86
2024/01/03 09:53:36;;;;;;;6.90;3.53;;;11.80;99.90;;;;;;5138494;27;20290;-85
2024/01/03 09:56:03;;;;;;;4.53;3.25;;;11.90;99.90;;;;;;5135618;27;20226;-77
2024/01/03 09:58:30;;;;;;;3.45;2.00;;;12.00;99.90;;;;;;5134466;27;20230;-77
2024/01/03 10:00:57;;;;;;;4.65;2.50;;;12.00;99.90;;;;;;5124922;27;20218;-78
2024/01/03 10:03:24;;;;;;;3.45;2.30;;;12.10;99.90;;;;;;5134862;27;20230;-78
2024/01/03 10:06:13;;;;;;;3.92;1.90;;;12.10;99.90;;;;;;5123722;27;20686;-78
2024/01/03 10:08:40;;;;;;;6.10;2.67;;;12.20;99.90;;;;;;5134509;27;20670;-78
2024/01/03 10:11:20;;;;;;;5.07;3.10;;;12.20;99.90;;;;;;5133983;27;20675;-78
2024/01/03 10:13:52;;;;;;;5.90;4.55;;;12.20;99.90;;;;;;5135623;27;20471;-84
2024/01/03 10:16:26;;;;;;;5.20;3.78;;;12.20;99.90;;;;;;5136628;27;20597;-85
2024/01/03 10:19:10;;;;;;;2.88;2.40;;;12.20;99.90;;;;;;5135674;27;20564;-84
2024/01/03 10:21:40;;;;;;;3.60;3.30;;;12.10;99.90;;;;;;5142628;27;20580;-84
2024/01/03 10:24:07;;;;;;;3.97;2.80;;;12.10;99.90;;;;;;5134978;27;20230;-84
2024/01/03 10:26:35;;;;;;;2.42;1.52;;;12.10;99.90;;;;;;5135035;27;20226;-84
2024/01/03 10:29:12;;;;;;;3.75;1.58;;;12.10;99.90;;;;;;5134657;27;20245;-84
2024/01/03 10:31:39;;;;;;;7.43;3.72;;;12.10;99.90;;;;;;5135102;27;20226;-83
2024/01/03 10:34:15;;;;;;;2.45;2.25;;;12.20;99.90;;;;;;5134858;27;20225;-85
2024/01/03 10:36:44;;;;;;;3.28;1.35;;;12.20;99.90;;;;;;5133866;27;20218;-84
2024/01/03 10:39:14;;;;;;;1.97;1.17;;;12.30;99.90;;;;;;5135202;27;20227;-85
2024/01/03 10:41:43;;;;;;;1.55;1.10;;;12.30;99.90;;;;;;5134120;27;20460;-84
2024/01/03 10:44:11;;;;;;;2.03;1.00;;;12.30;99.90;;;;;;5135374;27;20300;-85
2024/01/03 10:46:39;;;;;;;1.50;1.17;;;12.30;99.90;;;;;;5133974;27;20684;-83
2024/01/03 10:49:07;;;;;;;1.00;0.90;;;12.30;99.90;;;;;;5135464;27;20291;-85
2024/01/03 10:51:40;;;;;;;2.88;1.20;;;12.40;99.90;;;;;;5138943;27;20789;-85
2024/01/03 10:54:13;;;;;;;1.48;1.13;;;12.40;99.90;;;;;;5138528;27;20267;-84
2024/01/03 10:56:42;;;;;;;2.28;1.20;;;12.40;99.90;;;;;;5142715;27;20217;-84
2024/01/03 10:59:10;;;;;;;4.25;1.20;;;12.40;99.90;;;;;;5139772;27;20221;-84
2024/01/03 11:01:45;;;;;;;2.92;1.60;;;12.40;99.90;;;;;;5147908;27;20710;-83
2024/01/03 11:04:26;;;;;;;1.33;0.90;;;12.40;99.90;;;;;;5151715;27;20237;-84
2024/01/03 11:07:02;;;;;;;1.70;1.00;;;12.40;99.90;;;;;;5144192;27;20254;-77
2024/01/03 11:09:39;;;;;;;1.25;0.98;;;12.40;99.90;;;;;;5150234;27;20290;-83
2024/01/03 11:12:08;;;;;;;2.00;1.10;;;12.50;99.90;;;;;;5150078;27;20222;-82
2024/01/03 11:14:35;;;;;;;3.40;1.15;;;12.50;99.90;;;;;;5149780;27;20225;-85
2024/01/03 11:17:03;;;;;;;1.80;1.20;;;12.50;99.90;;;;;;5139195;27;20297;-76
2024/01/03 11:19:31;;;;;;;5.65;1.10;;;12.50;99.90;;;;;;5140030;27;20232;-79
2024/01/03 11:22:02;;;;;;;1.97;1.10;;;12.50;99.90;;;;;;5145400;27;20290;-85
2024/01/03 11:24:56;;;;;;;1.00;0.90;;;12.50;99.90;;;;;;5141763;27;20444;-86
2024/01/03 11:27:28;;;;;;;4.40;1.40;;;12.50;99.90;;;;;;5146293;27;20230;-85
2024/01/03 11:29:54;;;;;;;4.60;1.45;;;12.50;99.90;;;;;;5147654;27;20213;-86
2024/01/03 11:32:30;;;;;;;1.65;1.00;;;12.60;99.90;;;;;;5142254;27;20232;-85
2024/01/03 11:34:57;;;;;;;1.97;1.20;;;12.60;99.90;;;;;;5140193;27;20221;-85
2024/01/03 11:37:40;;;;;;;6.22;1.65;;;12.60;99.90;;;;;;5140612;27;20463;-86
2024/01/03 11:40:20;;;;;;;3.17;1.20;;;12.60;99.90;;;;;;5142793;27;20241;-85
2024/01/03 11:42:48;;;;;;;2.15;1.00;;;12.60;99.90;;;;;;5140302;27;20236;-80
2024/01/03 11:45:20;;;;;;;3.42;1.55;;;12.60;99.90;;;;;;5149161;27;20201;-84
2024/01/03 11:47:49;;;;;;;1.10;0.95;;;12.50;99.90;;;;;;5139070;27;20293;-86
2024/01/03 11:50:17;;;;;;;2.37;1.13;;;12.50;99.90;;;;;;5137159;27;20226;-85
2024/01/03 11:52:48;;;;;;;2.15;1.38;;;12.50;99.90;;;;;;5137379;27;20479;-86
2024/01/03 11:55:18;;;;;;;3.53;1.13;;;12.60;99.90;;;;;;5137450;27;20247;-79
2024/01/03 11:57:46;;;;;;;3.88;1.20;;;12.60;99.90;;;;;;5136984;27;20229;-79
2024/01/03 12:00:15;;;;;;;3.37;1.10;;;12.70;99.90;;;;;;5136073;27;20218;-86
2024/01/03 12:02:52;;;;;;;1.30;1.07;;;12.60;99.90;;;;;;5137235;27;20535;-85
2024/01/03 12:05:21;;;;;;;4.25;1.15;;;12.60;99.90;;;;;;5136789;27;20834;-79
2024/01/03 12:07:49;;;;;;;4.03;1.67;;;12.60;99.90;;;;;;5142945;27;20738;-86
2024/01/03 12:10:18;;;;;;;1.30;1.00;;;12.50;99.90;;;;;;5136555;27;20226;-79
2024/01/03 12:12:46;;;;;;;1.60;1.00;;;12.60;99.90;;;;;;5137060;27;20550;-79
2024/01/03 12:15:21;;;;;;;2.70;1.52;;;12.50;99.90;;;;;;5136062;27;20547;-85
2024/01/03 12:17:50;;;;;;;3.50;1.25;;;12.50;99.90;;;;;;5137152;27;20228;-79
2024/01/03 12:20:20;;;;;;;6.70;1.40;;;12.50;99.90;;;;;;5135570;27;20352;-79
2024/01/03 12:22:47;;;;;;;2.57;1.60;;;12.50;99.90;;;;;;5135937;27;20229;-79
2024/01/03 12:26:03;;;;;;;2.47;1.50;;;12.50;99.90;;;;;;5135687;27;20953;-79
2024/01/03 12:28:32;;;;;;;2.90;1.48;;;12.40;99.90;;;;;;5136151;27;20899;-79
2024/01/03 12:30:59;;;;;;;7.60;1.65;;;12.50;99.90;;;;;;5136366;27;20222;-79
2024/01/03 12:33:26;;;;;;;2.00;1.83;;;12.40;99.90;;;;;;5135475;27;20234;-79
2024/01/03 12:36:00;;;;;;;3.65;1.75;;;12.40;99.90;;;;;;5135824;27;20299;-79
2024/01/03 12:38:27;;;;;;;6.43;3.55;;;12.40;99.90;;;;;;5137251;27;20226;-86
2024/01/03 12:40:54;;;;;;;1.80;1.40;;;12.50;99.90;;;;;;5135429;27;20218;-79
2024/01/03 12:43:21;;;;;;;1.45;1.35;;;12.50;99.90;;;;;;5136402;27;20679;-85
2024/01/03 12:49:09;;;;;;;1.63;1.10;;;12.50;99.90;;;;;;5106895;27;20501;-85
2024/01/03 12:51:36;;;;;;;2.58;1.35;;;12.50;99.90;;;;;;5136596;27;20605;-86
2024/01/03 12:54:03;;;;;;;5.18;1.98;;;12.50;99.90;;;;;;5136190;27;20250;-86
2024/01/03 12:56:30;;;;;;;3.83;2.28;;;12.50;99.90;;;;;;5136953;27;20243;-85
2024/01/03 12:58:57;;;;;;;8.30;5.25;;;12.50;99.90;;;;;;5137308;27;20240;-85